createdAt,value
2019-05-06T00:00:34.084Z,4.04
2019-05-06T00:01:34.152Z,3.97
2019-05-06T00:02:34.070Z,4.01
2019-05-06T00:03:34.406Z,4.08
2019-05-06T00:04:34.116Z,4.01
2019-05-06T00:05:34.134Z,4.07
2019-05-06T00:06:34.634Z,4.08
2019-05-06T00:07:34.043Z,4.08
2019-05-06T00:08:34.566Z,4.10
2019-05-06T00:09:34.880Z,4.21
2019-05-06T00:10:34.119Z,4.19
2019-05-06T00:11:34.691Z,4.24
2019-05-06T00:12:33.630Z,4.18
2019-05-06T00:13:34.387Z,4.24
2019-05-06T00:14:33.932Z,4.15
2019-05-06T00:15:34.361Z,4.16
2019-05-06T00:16:34.721Z,4.12
2019-05-06T00:17:34.936Z,4.14
2019-05-06T00:18:34.129Z,4.12
2019-05-06T00:19:34.146Z,4.10
2019-05-06T00:20:34.799Z,4.21
2019-05-06T00:21:35.450Z,4.16
2019-05-06T00:22:34.320Z,4.01
2019-05-06T00:23:35.337Z,4.08
2019-05-06T00:24:34.772Z,4.15
2019-05-06T00:25:34.857Z,3.96
2019-05-06T00:26:33.978Z,4.01
2019-05-06T00:27:34.223Z,4.00
2019-05-06T00:28:33.971Z,4.00
2019-05-06T00:29:34.924Z,4.01
2019-05-06T00:30:34.527Z,3.89
2019-05-06T00:31:34.588Z,3.88
2019-05-06T00:32:34.841Z,3.83
2019-05-06T00:33:34.118Z,3.83
2019-05-06T00:34:34.117Z,3.80
2019-05-06T00:35:34.250Z,3.92
2019-05-06T00:36:34.491Z,3.90
2019-05-06T00:37:34.896Z,3.75
2019-05-06T00:38:33.989Z,3.75
2019-05-06T00:39:33.647Z,3.75
2019-05-06T00:40:34.014Z,3.72
2019-05-06T00:41:36.454Z,3.68
2019-05-06T00:42:34.606Z,3.70
2019-05-06T00:43:34.486Z,3.71
2019-05-06T00:44:34.667Z,3.65
2019-05-06T00:45:34.105Z,3.68
2019-05-06T00:46:34.433Z,3.76
2019-05-06T00:47:34.010Z,3.67
2019-05-06T00:48:34.089Z,3.79
2019-05-06T00:49:34.440Z,3.79
2019-05-06T00:50:34.838Z,3.75
2019-05-06T00:51:33.856Z,3.79
2019-05-06T00:52:33.997Z,3.80
2019-05-06T00:53:34.738Z,3.83
2019-05-06T00:54:34.067Z,3.80
2019-05-06T00:55:33.763Z,3.85
2019-05-06T00:56:34.046Z,3.89
2019-05-06T00:57:34.037Z,3.94
2019-05-06T00:58:34.725Z,3.98
2019-05-06T00:59:34.586Z,4.06
2019-05-06T01:00:33.674Z,4.07
2019-05-06T01:01:34.500Z,4.16
2019-05-06T01:02:34.256Z,4.12
2019-05-06T01:03:34.744Z,4.19
2019-05-06T01:04:33.869Z,4.29
2019-05-06T01:05:33.746Z,4.32
2019-05-06T01:06:34.409Z,4.36
2019-05-06T01:07:34.478Z,4.39
2019-05-06T01:08:34.770Z,4.43
2019-05-06T01:09:34.365Z,4.55
2019-05-06T01:10:34.411Z,4.67
2019-05-06T01:11:34.622Z,4.62
2019-05-06T01:12:34.634Z,4.70
2019-05-06T01:13:34.962Z,4.67
2019-05-06T01:14:32.725Z,4.77
2019-05-06T01:15:34.353Z,4.79
2019-05-06T01:16:34.547Z,4.92
2019-05-06T01:17:33.900Z,4.89
2019-05-06T01:18:34.027Z,4.96
2019-05-06T01:19:34.225Z,4.95
2019-05-06T01:20:33.915Z,5.09
2019-05-06T01:21:34.246Z,5.07
2019-05-06T01:22:34.206Z,5.10
2019-05-06T01:23:34.235Z,5.13
2019-05-06T01:24:34.446Z,5.22
2019-05-06T01:25:34.472Z,5.22
2019-05-06T01:26:33.769Z,5.34
2019-05-06T01:27:33.763Z,5.38
2019-05-06T01:28:34.077Z,5.46
2019-05-06T01:29:34.635Z,5.50
2019-05-06T01:30:33.712Z,5.53
2019-05-06T01:31:42.336Z,5.57
2019-05-06T01:32:34.517Z,5.52
2019-05-06T01:33:34.956Z,5.56
2019-05-06T01:34:34.022Z,5.59
2019-05-06T01:35:32.500Z,5.67
2019-05-06T01:36:34.327Z,5.68
2019-05-06T01:37:34.593Z,5.81
2019-05-06T01:38:34.006Z,5.75
2019-05-06T01:39:34.167Z,5.78
2019-05-06T01:40:34.497Z,5.88
2019-05-06T01:41:33.831Z,6.00
2019-05-06T01:42:34.307Z,6.01
2019-05-06T01:43:34.553Z,6.01
2019-05-06T01:44:33.919Z,5.98
2019-05-06T01:45:32.400Z,6.10
2019-05-06T01:46:33.970Z,6.00
2019-05-06T01:47:34.443Z,6.18
2019-05-06T01:48:33.640Z,6.10
2019-05-06T01:49:33.994Z,6.18
2019-05-06T01:50:34.341Z,6.14
2019-05-06T01:51:34.594Z,6.13
2019-05-06T01:52:34.347Z,6.14
2019-05-06T01:53:33.882Z,6.13
2019-05-06T01:54:34.186Z,6.09
2019-05-06T01:55:34.200Z,6.10
2019-05-06T01:56:33.765Z,6.22
2019-05-06T01:57:33.736Z,6.09
2019-05-06T01:58:33.570Z,6.09
2019-05-06T01:59:34.088Z,6.13
2019-05-06T02:00:34.332Z,6.11
2019-05-06T02:01:34.141Z,6.14
2019-05-06T02:02:34.206Z,6.13
2019-05-06T02:03:32.200Z,6.00
2019-05-06T02:04:33.723Z,6.00
2019-05-06T02:05:33.697Z,6.04
2019-05-06T02:06:34.089Z,5.95
2019-05-06T02:07:32.156Z,5.92
2019-05-06T02:08:33.681Z,5.96
2019-05-06T02:09:33.999Z,5.96
2019-05-06T02:10:34.506Z,5.95
2019-05-06T02:11:33.711Z,5.86
2019-05-06T02:12:34.083Z,5.86
2019-05-06T02:13:32.092Z,5.83
2019-05-06T02:14:34.149Z,5.74
2019-05-06T02:15:32.070Z,5.81
2019-05-06T02:16:34.112Z,5.85
2019-05-06T02:17:32.049Z,5.74
2019-05-06T02:18:33.895Z,5.71
2019-05-06T02:19:32.030Z,5.66
2019-05-06T02:20:34.011Z,5.66
2019-05-06T02:21:33.631Z,5.71
2019-05-06T02:22:31.996Z,5.73
2019-05-06T02:23:33.854Z,5.60
2019-05-06T02:24:33.764Z,5.60
2019-05-06T02:25:34.032Z,5.68
2019-05-06T02:26:31.953Z,5.60
2019-05-06T02:27:33.979Z,5.57
2019-05-06T02:28:34.345Z,5.57
2019-05-06T02:29:34.089Z,5.48
2019-05-06T02:30:31.919Z,5.49
2019-05-06T02:31:35.151Z,5.40
2019-05-06T02:32:34.965Z,5.34
2019-05-06T02:33:31.881Z,5.27
2019-05-06T02:34:31.870Z,5.22
2019-05-06T02:35:34.464Z,5.27
2019-05-06T02:36:34.292Z,5.13
2019-05-06T02:37:34.728Z,5.05
2019-05-06T02:38:39.082Z,4.94
2019-05-06T02:39:34.084Z,4.94
2019-05-06T02:40:33.238Z,4.83
2019-05-06T02:41:33.710Z,4.73
2019-05-06T02:42:33.665Z,4.64
2019-05-06T02:43:34.418Z,4.69
2019-05-06T02:44:33.590Z,4.55
2019-05-06T02:45:33.483Z,4.46
2019-05-06T02:46:33.848Z,4.50
2019-05-06T02:47:34.341Z,4.36
2019-05-06T02:48:33.596Z,4.46
2019-05-06T02:49:33.036Z,4.40
2019-05-06T02:50:33.907Z,4.40
2019-05-06T02:51:33.388Z,4.32
2019-05-06T02:52:32.948Z,4.21
2019-05-06T02:53:33.487Z,4.25
2019-05-06T02:54:34.456Z,4.16
2019-05-06T02:55:35.406Z,4.18
2019-05-06T02:56:33.345Z,4.18
2019-05-06T02:57:33.459Z,4.06
2019-05-06T02:58:33.074Z,4.12
2019-05-06T02:59:33.137Z,4.06
2019-05-06T03:00:32.986Z,4.00
2019-05-06T03:01:34.017Z,3.98
2019-05-06T03:02:41.976Z,3.82
2019-05-06T03:03:33.791Z,3.78
2019-05-06T03:04:33.223Z,3.64
2019-05-06T03:05:33.311Z,3.68
2019-05-06T03:06:33.746Z,3.83
2019-05-06T03:07:32.759Z,3.61
2019-05-06T03:08:32.851Z,3.64
2019-05-06T03:09:33.959Z,3.60
2019-05-06T03:10:32.899Z,3.62
2019-05-06T03:11:33.191Z,3.50
2019-05-06T03:12:33.547Z,3.57
2019-05-06T03:13:34.039Z,3.54
2019-05-06T03:14:34.468Z,3.52
2019-05-06T03:15:33.554Z,3.40
2019-05-06T03:16:33.322Z,3.42
2019-05-06T03:17:32.880Z,3.44
2019-05-06T03:18:32.813Z,3.44
2019-05-06T03:19:34.038Z,3.39
2019-05-06T03:20:32.438Z,3.34
2019-05-06T03:21:33.665Z,3.49
2019-05-06T03:22:34.424Z,3.50
2019-05-06T03:23:34.476Z,3.43
2019-05-06T03:24:33.112Z,3.39
2019-05-06T03:25:33.161Z,3.40
2019-05-06T03:26:33.146Z,3.44
2019-05-06T03:27:32.899Z,3.42
2019-05-06T03:28:33.328Z,3.44
2019-05-06T03:29:33.363Z,3.42
2019-05-06T03:30:35.652Z,3.36
2019-05-06T03:31:36.497Z,3.34
2019-05-06T03:32:37.819Z,3.40
2019-05-06T03:33:50.802Z,3.42
2019-05-06T03:34:52.166Z,3.36
2019-05-06T03:35:42.534Z,3.39
2019-05-06T03:36:39.415Z,3.40
2019-05-06T03:37:33.484Z,3.34
2019-05-06T03:38:33.396Z,3.36
2019-05-06T03:39:33.700Z,3.31
2019-05-06T03:40:36.150Z,3.28
2019-05-06T03:41:33.777Z,3.28
2019-05-06T03:42:33.462Z,3.25
2019-05-06T03:43:33.668Z,3.24
2019-05-06T03:44:33.090Z,3.25
2019-05-06T03:45:33.559Z,3.28
2019-05-06T03:46:33.478Z,3.25
2019-05-06T03:47:34.226Z,3.28
2019-05-06T03:48:33.316Z,3.31
2019-05-06T03:49:33.857Z,3.40
2019-05-06T03:50:33.604Z,3.36
2019-05-06T03:51:33.501Z,3.42
2019-05-06T03:52:33.842Z,3.53
2019-05-06T03:53:33.365Z,3.61
2019-05-06T03:54:34.017Z,3.75
2019-05-06T03:55:33.964Z,3.85
2019-05-06T03:56:33.725Z,3.76
2019-05-06T03:57:33.244Z,3.78
2019-05-06T03:58:30.975Z,3.78
2019-05-06T03:59:33.477Z,3.65
2019-05-06T04:00:33.341Z,3.71
2019-05-06T04:01:33.572Z,3.83
2019-05-06T04:02:33.450Z,3.97
2019-05-06T04:03:44.120Z,4.26
2019-05-06T04:04:33.222Z,4.50
2019-05-06T04:05:33.389Z,4.89
2019-05-06T04:06:33.311Z,5.37
2019-05-06T04:07:33.793Z,5.60
2019-05-06T04:08:33.870Z,5.56
2019-05-06T04:09:36.277Z,5.48
2019-05-06T04:10:33.780Z,5.31
2019-05-06T04:11:35.875Z,5.13
2019-05-06T04:12:33.123Z,4.98
2019-05-06T04:13:33.187Z,4.95
2019-05-06T04:14:32.977Z,4.89
2019-05-06T04:15:34.043Z,4.94
2019-05-06T04:16:33.637Z,4.79
2019-05-06T04:17:32.925Z,4.80
2019-05-06T04:18:33.386Z,4.69
2019-05-06T04:19:33.319Z,4.59
2019-05-06T04:20:33.973Z,4.62
2019-05-06T04:21:32.984Z,4.83
2019-05-06T04:22:33.099Z,4.88
2019-05-06T04:23:33.089Z,4.92
2019-05-06T04:24:33.486Z,4.86
2019-05-06T04:25:30.689Z,4.80
2019-05-06T04:26:32.953Z,4.79
2019-05-06T04:27:33.267Z,4.83
2019-05-06T04:28:33.953Z,4.95
2019-05-06T04:29:33.076Z,5.09
2019-05-06T04:30:33.189Z,5.13
2019-05-06T04:31:33.406Z,5.09
2019-05-06T04:32:33.850Z,5.10
2019-05-06T04:33:33.121Z,4.95
2019-05-06T04:34:33.152Z,5.02
2019-05-06T04:35:33.568Z,5.10
2019-05-06T04:36:33.469Z,5.55
2019-05-06T04:37:33.616Z,5.64
2019-05-06T04:38:33.495Z,5.68
2019-05-06T04:39:33.121Z,5.66
2019-05-06T04:40:33.133Z,5.68
2019-05-06T04:41:33.816Z,6.28
2019-05-06T04:42:30.511Z,7.17
2019-05-06T04:43:33.422Z,8.20
2019-05-06T04:44:32.860Z,8.96
2019-05-06T04:45:33.415Z,9.63
2019-05-06T04:46:30.469Z,10.19
2019-05-06T04:47:32.736Z,10.84
2019-05-06T04:48:33.049Z,11.20
2019-05-06T04:49:33.072Z,11.71
2019-05-06T04:50:33.129Z,12.12
2019-05-06T04:51:32.766Z,12.45
2019-05-06T04:52:34.140Z,12.77
2019-05-06T04:53:33.888Z,12.95
2019-05-06T04:54:33.085Z,13.17
2019-05-06T04:55:33.370Z,13.29
2019-05-06T04:56:33.138Z,13.36
2019-05-06T04:57:33.369Z,13.67
2019-05-06T04:58:33.263Z,13.96
2019-05-06T04:59:32.583Z,14.20
2019-05-06T05:00:33.000Z,14.50
2019-05-06T05:01:30.304Z,14.42
2019-05-06T05:02:30.293Z,14.46
2019-05-06T05:03:30.282Z,14.57
2019-05-06T05:04:32.603Z,14.75
2019-05-06T05:05:33.077Z,14.99
2019-05-06T05:06:32.661Z,15.03
2019-05-06T05:07:30.243Z,15.12
2019-05-06T05:08:30.228Z,14.81
2019-05-06T05:09:32.595Z,14.78
2019-05-06T05:10:32.305Z,15.01
2019-05-06T05:11:33.084Z,15.33
2019-05-06T05:12:30.188Z,15.51
2019-05-06T05:13:32.778Z,15.49
2019-05-06T05:14:30.197Z,15.63
2019-05-06T05:15:32.411Z,15.63
2019-05-06T05:16:30.144Z,15.56
2019-05-06T05:17:30.135Z,15.31
2019-05-06T05:18:32.015Z,15.41
2019-05-06T05:19:32.575Z,15.72
2019-05-06T05:20:38.185Z,16.00
2019-05-06T05:21:32.262Z,16.44
2019-05-06T05:22:30.082Z,16.42
2019-05-06T05:23:31.941Z,16.38
2019-05-06T05:24:31.695Z,16.75
2019-05-06T05:25:30.060Z,16.56
2019-05-06T05:26:32.182Z,16.45
2019-05-06T05:27:30.033Z,16.50
2019-05-06T05:28:31.645Z,16.68
2019-05-06T05:29:30.011Z,16.77
2019-05-06T05:30:30.011Z,16.98
2019-05-06T05:31:29.990Z,17.00
2019-05-06T05:32:31.988Z,16.83
2019-05-06T05:33:29.971Z,16.62
2019-05-06T05:34:38.020Z,16.74
2019-05-06T05:35:32.154Z,16.77
2019-05-06T05:36:29.943Z,16.89
2019-05-06T05:37:29.929Z,16.85
2019-05-06T05:38:31.903Z,16.80
2019-05-06T05:39:29.912Z,16.71
2019-05-06T05:40:32.071Z,16.80
2019-05-06T05:41:29.890Z,16.77
2019-05-06T05:42:29.882Z,17.03
2019-05-06T05:43:29.887Z,17.44
2019-05-06T05:44:29.866Z,17.94
2019-05-06T05:45:29.860Z,18.21
2019-05-06T05:46:29.841Z,18.25
2019-05-06T05:47:29.830Z,17.89
2019-05-06T05:48:29.881Z,18.33
2019-05-06T05:49:29.815Z,18.42
2019-05-06T05:50:32.342Z,18.50
2019-05-06T05:51:31.888Z,18.07
2019-05-06T05:52:29.783Z,18.49
2019-05-06T05:53:29.771Z,18.47
2019-05-06T05:54:29.762Z,18.57
2019-05-06T05:55:29.794Z,18.67
2019-05-06T05:56:29.745Z,18.70
2019-05-06T05:57:31.707Z,19.06
2019-05-06T05:58:29.725Z,19.33
2019-05-06T05:59:29.715Z,19.54
2019-05-06T06:00:32.245Z,19.73
2019-05-06T06:01:29.705Z,20.05
2019-05-06T06:02:29.684Z,20.38
2019-05-06T06:03:29.673Z,20.65
2019-05-06T06:04:32.025Z,20.86
2019-05-06T06:05:29.655Z,20.46
2019-05-06T06:06:29.654Z,20.13
2019-05-06T06:07:29.637Z,20.03
2019-05-06T06:08:29.631Z,20.18
2019-05-06T06:09:29.618Z,20.00
2019-05-06T06:10:29.609Z,19.79
2019-05-06T06:11:29.617Z,19.98
2019-05-06T06:12:29.591Z,19.42
2019-05-06T06:13:31.895Z,19.58
2019-05-06T06:14:29.575Z,19.78
2019-05-06T06:15:29.565Z,19.48
2019-05-06T06:16:29.563Z,19.17
2019-05-06T06:17:29.545Z,18.99
2019-05-06T06:18:29.558Z,18.68
2019-05-06T06:19:29.525Z,18.91
2019-05-06T06:20:29.516Z,19.01
2019-05-06T06:21:29.519Z,19.23
2019-05-06T06:22:29.509Z,19.47
2019-05-06T06:23:29.491Z,19.25
2019-05-06T06:24:29.479Z,19.21
2019-05-06T06:25:29.475Z,18.91
2019-05-06T06:26:29.469Z,18.65
2019-05-06T06:27:29.452Z,18.59
2019-05-06T06:28:29.442Z,18.57
2019-05-06T06:29:29.432Z,18.72
2019-05-06T06:30:29.423Z,18.59
2019-05-06T06:31:29.445Z,18.65
2019-05-06T06:32:29.405Z,19.31
2019-05-06T06:33:29.397Z,19.70
2019-05-06T06:34:29.388Z,19.31
2019-05-06T06:35:29.381Z,19.28
2019-05-06T06:36:29.369Z,19.06
2019-05-06T06:37:29.373Z,18.68
2019-05-06T06:38:29.349Z,18.52
2019-05-06T06:39:29.340Z,18.77
2019-05-06T06:40:29.333Z,19.02
2019-05-06T06:41:29.323Z,18.95
2019-05-06T06:42:29.321Z,19.05
2019-05-06T06:43:29.307Z,18.61
2019-05-06T06:44:29.296Z,18.44
2019-05-06T06:45:29.296Z,18.50
2019-05-06T06:46:29.280Z,17.84
2019-05-06T06:47:29.274Z,17.91
2019-05-06T06:48:29.255Z,17.94
2019-05-06T06:49:29.247Z,16.67
2019-05-06T06:50:29.238Z,16.52
2019-05-06T06:51:29.228Z,17.07
2019-05-06T06:52:29.226Z,16.93
2019-05-06T06:53:29.208Z,16.34
2019-05-06T06:54:29.199Z,16.96
2019-05-06T06:55:29.187Z,16.49
2019-05-06T06:56:29.179Z,16.70
2019-05-06T06:57:31.383Z,16.44
2019-05-06T06:58:32.181Z,16.78
2019-05-06T06:59:29.145Z,17.57
2019-05-06T07:00:29.139Z,17.23
2019-05-06T07:01:29.126Z,16.40
2019-05-06T07:02:29.129Z,16.83
2019-05-06T07:03:29.105Z,17.55
2019-05-06T07:04:29.098Z,18.19
2019-05-06T07:05:29.084Z,18.65
2019-05-06T07:06:29.075Z,19.05
2019-05-06T07:07:41.369Z,18.57
2019-05-06T07:08:36.552Z,17.81
2019-05-06T07:09:32.238Z,18.39
2019-05-06T07:10:29.037Z,17.95
2019-05-06T07:11:29.023Z,17.74
2019-05-06T07:12:29.019Z,17.51
2019-05-06T07:13:29.000Z,17.62
2019-05-06T07:14:28.990Z,17.57
2019-05-06T07:15:28.982Z,17.71
2019-05-06T07:16:28.974Z,18.09
2019-05-06T07:17:28.968Z,17.63
2019-05-06T07:18:28.949Z,17.51
2019-05-06T07:19:28.939Z,17.66
2019-05-06T07:20:28.929Z,17.53
2019-05-06T07:21:29.338Z,17.22
2019-05-06T07:22:28.941Z,17.23
2019-05-06T07:23:28.900Z,17.06
2019-05-06T07:24:28.887Z,16.38
2019-05-06T07:25:28.875Z,16.16
2019-05-06T07:26:28.870Z,16.33
2019-05-06T07:27:28.854Z,16.12
2019-05-06T07:28:28.854Z,16.18
2019-05-06T07:29:28.832Z,16.11
2019-05-06T07:30:28.823Z,16.30
2019-05-06T07:31:28.812Z,16.48
2019-05-06T07:32:28.800Z,15.94
2019-05-06T07:33:28.800Z,15.92
2019-05-06T07:34:28.779Z,16.16
2019-05-06T07:35:38.514Z,15.99
2019-05-06T07:36:31.774Z,16.04
2019-05-06T07:37:28.747Z,16.01
2019-05-06T07:38:28.746Z,15.76
2019-05-06T07:39:28.726Z,15.81
2019-05-06T07:40:28.715Z,15.74
2019-05-06T07:41:28.704Z,15.70
2019-05-06T07:42:28.721Z,15.70
2019-05-06T07:43:28.718Z,15.64
2019-05-06T07:44:28.677Z,15.33
2019-05-06T07:45:28.662Z,14.90
2019-05-06T07:46:28.660Z,14.87
2019-05-06T07:47:28.642Z,14.93
2019-05-06T07:48:28.630Z,14.88
2019-05-06T07:49:28.628Z,14.78
2019-05-06T07:50:28.609Z,14.52
2019-05-06T07:51:28.607Z,14.31
2019-05-06T07:52:28.588Z,14.32
2019-05-06T07:53:28.577Z,14.16
2019-05-06T07:54:28.573Z,14.12
2019-05-06T07:55:28.556Z,14.28
2019-05-06T07:56:28.546Z,14.21
2019-05-06T07:57:28.542Z,14.37
2019-05-06T07:58:28.523Z,14.39
2019-05-06T07:59:28.522Z,14.42
2019-05-06T08:00:28.502Z,14.64
2019-05-06T08:01:28.494Z,14.69
2019-05-06T08:02:28.479Z,14.69
2019-05-06T08:03:28.469Z,14.52
2019-05-06T08:04:28.465Z,14.12
2019-05-06T08:05:28.446Z,13.76
2019-05-06T08:06:28.436Z,13.15
2019-05-06T08:07:28.426Z,12.75
2019-05-06T08:08:28.414Z,12.71
2019-05-06T08:09:28.418Z,12.87
2019-05-06T08:10:28.395Z,12.97
2019-05-06T08:11:28.384Z,13.15
2019-05-06T08:12:28.389Z,13.24
2019-05-06T08:13:28.363Z,13.52
2019-05-06T08:14:28.388Z,13.55
2019-05-06T08:15:28.346Z,13.59
2019-05-06T08:16:28.329Z,13.71
2019-05-06T08:17:28.323Z,13.67
2019-05-06T08:18:28.314Z,13.46
2019-05-06T08:19:28.300Z,13.30
2019-05-06T08:20:28.301Z,13.36
2019-05-06T08:21:28.277Z,13.29
2019-05-06T08:22:28.266Z,13.37
2019-05-06T08:23:28.255Z,13.52
2019-05-06T08:24:28.250Z,13.63
2019-05-06T08:25:28.248Z,13.46
2019-05-06T08:26:28.225Z,13.32
2019-05-06T08:27:28.218Z,13.37
2019-05-06T08:28:40.307Z,13.41
2019-05-06T08:29:29.191Z,13.54
2019-05-06T08:30:28.216Z,13.63
2019-05-06T08:31:28.171Z,13.73
2019-05-06T08:32:28.163Z,13.69
2019-05-06T08:33:28.149Z,13.76
2019-05-06T08:34:28.138Z,13.83
2019-05-06T08:35:28.136Z,13.98
2019-05-06T08:36:28.119Z,14.07
2019-05-06T08:37:28.105Z,13.95
2019-05-06T08:38:28.096Z,14.04
2019-05-06T08:39:28.084Z,13.94
2019-05-06T08:40:28.081Z,13.87
2019-05-06T08:41:28.062Z,13.73
2019-05-06T08:42:28.053Z,13.30
2019-05-06T08:43:28.042Z,13.15
2019-05-06T08:44:28.030Z,13.07
2019-05-06T08:45:28.028Z,12.89
2019-05-06T08:46:28.009Z,12.85
2019-05-06T08:47:28.000Z,12.99
2019-05-06T08:48:27.989Z,13.09
2019-05-06T08:49:27.976Z,13.37
2019-05-06T08:50:27.973Z,13.67
2019-05-06T08:51:27.955Z,13.94
2019-05-06T08:52:27.944Z,14.14
2019-05-06T08:53:27.933Z,14.37
2019-05-06T08:54:27.922Z,14.47
2019-05-06T08:55:28.059Z,14.60
2019-05-06T08:56:27.903Z,14.60
2019-05-06T08:57:27.896Z,14.39
2019-05-06T08:58:27.881Z,14.06
2019-05-06T08:59:27.870Z,13.69
2019-05-06T09:00:27.860Z,13.59
2019-05-06T09:01:27.860Z,13.41
2019-05-06T09:02:27.838Z,13.61
2019-05-06T09:03:27.825Z,13.76
2019-05-06T09:04:27.817Z,13.81
2019-05-06T09:05:27.804Z,13.80
2019-05-06T09:06:31.590Z,13.71
2019-05-06T09:07:28.783Z,13.56
2019-05-06T09:08:27.773Z,13.59
2019-05-06T09:09:27.763Z,13.65
2019-05-06T09:10:27.751Z,13.96
2019-05-06T09:11:27.748Z,14.06
2019-05-06T09:12:27.729Z,14.42
2019-05-06T09:13:27.718Z,14.44
2019-05-06T09:14:27.709Z,14.46
2019-05-06T09:15:27.697Z,14.43
2019-05-06T09:16:27.697Z,14.32
2019-05-06T09:17:27.676Z,14.24
2019-05-06T09:18:27.667Z,14.21
2019-05-06T09:19:27.656Z,14.24
2019-05-06T09:20:27.645Z,14.24
2019-05-06T09:21:27.642Z,14.04
2019-05-06T09:22:27.630Z,13.98
2019-05-06T09:23:27.756Z,13.99
2019-05-06T09:24:27.608Z,13.98
2019-05-06T09:25:27.591Z,13.88
2019-05-06T09:26:27.588Z,13.83
2019-05-06T09:27:27.568Z,13.98
2019-05-06T09:28:27.573Z,14.10
2019-05-06T09:29:27.547Z,14.44
2019-05-06T09:30:27.539Z,14.78
2019-05-06T09:31:27.526Z,15.03
2019-05-06T09:32:27.535Z,15.28
2019-05-06T09:33:27.505Z,15.31
2019-05-06T09:34:27.508Z,15.35
2019-05-06T09:35:27.502Z,15.15
2019-05-06T09:36:39.856Z,15.01
2019-05-06T09:37:28.500Z,14.74
2019-05-06T09:38:27.450Z,14.50
2019-05-06T09:39:27.441Z,14.50
2019-05-06T09:40:27.430Z,14.14
2019-05-06T09:41:27.425Z,14.01
2019-05-06T09:42:27.418Z,13.83
2019-05-06T09:43:27.398Z,13.74
2019-05-06T09:44:27.386Z,13.80
2019-05-06T09:45:27.375Z,13.81
2019-05-06T09:46:27.392Z,14.06
2019-05-06T09:47:27.362Z,14.32
2019-05-06T09:48:27.346Z,14.52
2019-05-06T09:49:27.332Z,14.72
2019-05-06T09:50:27.324Z,15.02
2019-05-06T09:51:27.314Z,15.24
2019-05-06T09:52:27.309Z,15.46
2019-05-06T09:53:27.291Z,15.68
2019-05-06T09:54:27.282Z,15.45
2019-05-06T09:55:27.271Z,15.57
2019-05-06T09:56:27.259Z,15.70
2019-05-06T09:57:27.257Z,15.51
2019-05-06T09:58:27.240Z,15.35
2019-05-06T09:59:27.227Z,15.08
2019-05-06T10:00:27.216Z,14.94
2019-05-06T10:01:27.214Z,14.72
2019-05-06T10:02:27.204Z,14.62
2019-05-06T10:03:27.186Z,14.29
2019-05-06T10:04:27.174Z,14.20
2019-05-06T10:05:27.163Z,13.98
2019-05-06T10:06:27.157Z,13.95
2019-05-06T10:07:27.152Z,13.83
2019-05-06T10:08:27.133Z,14.09
2019-05-06T10:09:27.141Z,14.35
2019-05-06T10:10:27.109Z,14.74
2019-05-06T10:11:27.107Z,14.90
2019-05-06T10:12:27.096Z,15.09
2019-05-06T10:13:27.076Z,15.28
2019-05-06T10:14:27.067Z,15.33
2019-05-06T10:15:27.056Z,15.12
2019-05-06T10:16:27.047Z,14.95
2019-05-06T10:17:27.045Z,14.62
2019-05-06T10:18:27.026Z,14.42
2019-05-06T10:19:27.015Z,14.43
2019-05-06T10:20:27.002Z,14.14
2019-05-06T10:21:26.995Z,13.84
2019-05-06T10:22:26.991Z,13.70
2019-05-06T10:23:26.972Z,13.38
2019-05-06T10:24:26.958Z,13.37
2019-05-06T10:25:26.950Z,13.14
2019-05-06T10:26:26.940Z,13.20
2019-05-06T10:27:26.956Z,13.07
2019-05-06T10:28:26.928Z,12.96
2019-05-06T10:29:26.907Z,13.00
2019-05-06T10:30:26.897Z,12.97
2019-05-06T10:31:26.885Z,13.06
2019-05-06T10:32:26.872Z,13.06
2019-05-06T10:33:26.872Z,13.06
2019-05-06T10:34:26.853Z,13.06
2019-05-06T10:35:29.660Z,13.00
2019-05-06T10:36:26.831Z,12.99
2019-05-06T10:37:26.819Z,12.85
2019-05-06T10:38:26.820Z,12.87
2019-05-06T10:39:26.797Z,12.78
2019-05-06T10:40:26.789Z,12.62
2019-05-06T10:41:26.775Z,12.60
2019-05-06T10:42:26.765Z,12.64
2019-05-06T10:43:26.765Z,12.67
2019-05-06T10:44:26.744Z,12.52
2019-05-06T10:45:26.735Z,12.46
2019-05-06T10:46:26.720Z,12.54
2019-05-06T10:47:26.709Z,12.54
2019-05-06T10:48:26.707Z,12.48
2019-05-06T10:49:26.689Z,12.62
2019-05-06T10:50:26.683Z,12.62
2019-05-06T10:51:26.667Z,12.62
2019-05-06T10:52:26.656Z,12.62
2019-05-06T10:53:26.663Z,12.64
2019-05-06T10:54:26.633Z,12.87
2019-05-06T10:55:26.641Z,12.87
2019-05-06T10:56:26.611Z,13.06
2019-05-06T10:57:26.600Z,13.17
2019-05-06T10:58:26.625Z,13.21
2019-05-06T10:59:26.576Z,13.47
2019-05-06T11:00:26.567Z,13.77
2019-05-06T11:01:26.557Z,13.95
2019-05-06T11:02:26.575Z,14.02
2019-05-06T11:03:27.657Z,14.17
2019-05-06T11:04:26.532Z,14.32
2019-05-06T11:05:26.512Z,14.28
2019-05-06T11:06:26.500Z,14.20
2019-05-06T11:07:31.496Z,14.24
2019-05-06T11:08:27.477Z,14.13
2019-05-06T11:09:26.478Z,14.20
2019-05-06T11:10:31.254Z,14.07
2019-05-06T11:11:37.739Z,14.06
2019-05-06T11:12:27.434Z,13.96
2019-05-06T11:13:26.428Z,13.89
2019-05-06T11:14:26.424Z,13.88
2019-05-06T11:15:26.403Z,13.74
2019-05-06T11:16:26.392Z,13.46
2019-05-06T11:17:26.384Z,13.43
2019-05-06T11:18:26.372Z,13.36
2019-05-06T11:19:26.369Z,13.44
2019-05-06T11:20:26.351Z,13.54
2019-05-06T11:21:26.338Z,13.47
2019-05-06T11:22:26.340Z,13.41
2019-05-06T11:23:26.317Z,13.40
2019-05-06T11:24:26.321Z,13.47
2019-05-06T11:25:26.295Z,13.49
2019-05-06T11:26:26.284Z,13.56
2019-05-06T11:27:32.012Z,13.83
2019-05-06T11:28:27.263Z,14.01
2019-05-06T11:29:26.265Z,14.10
2019-05-06T11:30:26.240Z,14.06
2019-05-06T11:31:26.231Z,14.10
2019-05-06T11:32:26.221Z,13.81
2019-05-06T11:33:26.209Z,13.87
2019-05-06T11:34:26.253Z,13.92
2019-05-06T11:35:26.185Z,14.01
2019-05-06T11:36:26.184Z,14.32
2019-05-06T11:37:26.168Z,14.56
2019-05-06T11:38:26.155Z,14.68
2019-05-06T11:39:26.153Z,14.74
2019-05-06T11:40:26.159Z,14.94
2019-05-06T11:41:26.121Z,15.08
2019-05-06T11:42:32.107Z,15.08
2019-05-06T11:43:27.098Z,15.05
2019-05-06T11:44:26.129Z,15.05
2019-05-06T11:45:26.078Z,14.94
2019-05-06T11:46:26.084Z,15.17
2019-05-06T11:47:26.056Z,15.45
2019-05-06T11:48:26.046Z,15.60
2019-05-06T11:49:26.039Z,15.72
2019-05-06T11:50:26.037Z,15.97
2019-05-06T11:51:26.018Z,15.97
2019-05-06T11:52:26.007Z,15.96
2019-05-06T11:53:25.994Z,15.68
2019-05-06T11:54:25.985Z,15.59
2019-05-06T11:55:31.614Z,15.35
2019-05-06T11:56:26.961Z,15.23
2019-05-06T11:57:25.949Z,15.19
2019-05-06T11:58:25.944Z,15.13
2019-05-06T11:59:25.929Z,15.03
2019-05-06T12:00:25.932Z,14.83
2019-05-06T12:01:25.910Z,14.78
2019-05-06T12:02:25.897Z,14.54
2019-05-06T12:03:25.888Z,14.32
2019-05-06T12:04:25.880Z,14.19
2019-05-06T12:05:25.879Z,14.04
2019-05-06T12:06:25.855Z,13.87
2019-05-06T12:07:25.848Z,13.88
2019-05-06T12:08:25.835Z,13.94
2019-05-06T12:09:25.824Z,13.84
2019-05-06T12:10:25.824Z,13.94
2019-05-06T12:11:25.802Z,14.04
2019-05-06T12:12:25.794Z,14.01
2019-05-06T12:13:25.785Z,14.19
2019-05-06T12:14:25.770Z,14.21
2019-05-06T12:15:25.770Z,14.21
2019-05-06T12:16:26.445Z,14.09
2019-05-06T12:17:25.740Z,13.98
2019-05-06T12:18:25.727Z,14.10
2019-05-06T12:19:25.721Z,14.12
2019-05-06T12:20:25.714Z,14.37
2019-05-06T12:21:25.697Z,14.39
2019-05-06T12:22:25.685Z,14.57
2019-05-06T12:23:25.690Z,14.68
2019-05-06T12:24:25.667Z,14.54
2019-05-06T12:25:25.726Z,14.60
2019-05-06T12:26:25.646Z,14.60
2019-05-06T12:27:25.631Z,14.56
2019-05-06T12:28:25.621Z,14.50
2019-05-06T12:29:25.619Z,14.60
2019-05-06T12:30:25.610Z,14.42
2019-05-06T12:31:25.589Z,14.47
2019-05-06T12:32:25.579Z,14.31
2019-05-06T12:33:25.568Z,14.47
2019-05-06T12:34:25.557Z,14.37
2019-05-06T12:35:25.556Z,14.49
2019-05-06T12:36:25.538Z,14.60
2019-05-06T12:37:25.525Z,14.53
2019-05-06T12:38:30.332Z,14.78
2019-05-06T12:39:26.512Z,14.72
2019-05-06T12:40:25.502Z,14.91
2019-05-06T12:41:25.483Z,14.93
2019-05-06T12:42:25.473Z,14.91
2019-05-06T12:43:25.460Z,14.81
2019-05-06T12:44:25.453Z,14.69
2019-05-06T12:45:25.461Z,14.68
2019-05-06T12:46:25.429Z,14.74
2019-05-06T12:47:25.420Z,14.65
2019-05-06T12:48:25.416Z,14.53
2019-05-06T12:49:25.397Z,14.46
2019-05-06T12:50:25.386Z,14.44
2019-05-06T12:51:25.383Z,14.42
2019-05-06T12:52:25.366Z,14.19
2019-05-06T12:53:25.358Z,14.01
2019-05-06T12:54:25.343Z,14.17
2019-05-06T12:55:25.512Z,14.20
2019-05-06T12:56:25.330Z,14.16
2019-05-06T12:57:25.314Z,14.19
2019-05-06T12:58:25.306Z,14.06
2019-05-06T12:59:25.290Z,14.19
2019-05-06T13:00:25.293Z,14.16
2019-05-06T13:01:25.278Z,14.17